M I D A S
Marine Information and Data Acquisition System
Tripno 1904 of the Zeeleeuw from 2010-06-22 06:24:34 to 2010-06-22 16:58:46
Back to CruiseResearch ActivitiesStationsMapUnderway DataData graphs

EquipmentUnitsComments
TimeDGPSUTC
LatitudeDGPSDM.mWGS84
LongitudeDGPSDM.mWGS84
SpeedMeteo Stationm/sRelative wind speed
DirectionMeteo StationdegRelative wind direction
TemperatureMeteo Stationdeg CelciusAir temperature
PressureMeteo StationPaAtmospheric pressure
HumidityMeteo Station%Relative humidity
Missing or incorrect values are displayed as -999
Metereological data collected by the RV Zeeleeuw from 2010-06-22 06:13:07 to 2010-06-22 17:06:19
Time Latitude Longitude Speed Direction Temperature Pressure Humidity
2010-06-22 06:14 51°13.673 2°55.906 -999 30 12.8 102430 41
2010-06-22 06:15 51°13.685 2°55.815 -999 27 12.8 102430 41
2010-06-22 06:16 51°13.686 2°55.738 0.8 34 12.8 102430 41
2010-06-22 06:17 51°13.715 2°55.758 0.2 14 12.9 102430 41
2010-06-22 06:18 51°13.771 2°55.689 -999 337 12.9 102430 41
2010-06-22 06:19 51°13.861 2°55.611 -999 334 13 102430 39
2010-06-22 06:20 51°13.947 2°55.548 -999 339 13 102430 41
2010-06-22 06:21 51°14.026 2°55.491 -999 348 13 102430 40
2010-06-22 06:22 51°14.102 2°55.436 -999 347 12.9 102440 41
2010-06-22 06:23 51°14.189 2°55.367 -999 340 12.9 102430 41
2010-06-22 06:24 51°14.302 2°55.245 2.8 333 12.9 102430 39
2010-06-22 06:25 51°14.449 2°55.089 3.6 336 12.9 102430 43
2010-06-22 06:26 51°14.593 2°54.897 3.6 331 12.9 102440 41
2010-06-22 06:27 51°14.625 2°54.599 4.4 324 13 102430 39
2010-06-22 06:28 51°14.568 2°54.286 5.3 325 13.1 102420 39
2010-06-22 06:29 51°14.454 2°54.008 5.4 325 13 102420 42
2010-06-22 06:30 51°14.325 2°53.744 6.5 325 13.1 102420 41
2010-06-22 06:31 51°14.2 2°53.473 6.4 328 13.1 102430 39
2010-06-22 06:32 51°14.075 2°53.202 6 327 13 102420 42
2010-06-22 06:33 51°13.953 2°52.931 5.9 327 13.1 102420 39
2010-06-22 06:34 51°13.831 2°52.661 5.6 325 13 102420 40
2010-06-22 06:35 51°13.709 2°52.39 6.2 324 13 102420 38
2010-06-22 06:36 51°13.589 2°52.119 5.8 323 13 102420 39
2010-06-22 06:37 51°13.475 2°51.865 5.2 321 13 102430 39
2010-06-22 06:38 51°13.384 2°51.659 5 322 13 102430 40
2010-06-22 06:39 51°13.361 2°51.476 0.5 320 13.1 102430 39
2010-06-22 06:40 51°13.435 2°51.404 -999 332 13.1 102440 41
2010-06-22 06:41 51°13.511 2°51.395 -999 7 13.1 102440 41
2010-06-22 06:42 51°13.534 2°51.42 -999 30 13.1 102440 41
2010-06-22 06:43 51°13.543 2°51.442 -999 30 13.2 102440 40
2010-06-22 06:44 51°13.551 2°51.465 -999 26 13.2 102440 41
2010-06-22 06:45 51°13.558 2°51.488 -999 22 13.3 102440 41
2010-06-22 06:46 51°13.566 2°51.512 -999 26 13.3 102440 41
2010-06-22 06:47 51°13.573 2°51.536 -999 28 13.3 102440 41
2010-06-22 06:48 51°13.58 2°51.563 -999 25 13.4 102430 41
2010-06-22 06:49 51°13.591 2°51.61 -999 4 13.5 102430 41
2010-06-22 06:50 51°13.599 2°51.65 -999 1 13.5 102430 41
2010-06-22 06:51 51°13.606 2°51.687 -999 353 13.4 102430 39
2010-06-22 06:52 51°13.613 2°51.723 -999 346 13.4 102430 41
2010-06-22 06:53 51°13.621 2°51.759 -999 351 13.3 102430 41
2010-06-22 06:54 51°13.628 2°51.793 -999 356 13.3 102430 41
2010-06-22 06:55 51°13.632 2°51.842 0.6 335 13.3 102430 41
2010-06-22 06:56 51°13.601 2°51.893 1.1 324 13.3 102430 39
2010-06-22 06:57 51°13.55 2°51.812 3.1 325 13.4 102430 43
2010-06-22 06:58 51°13.467 2°51.603 5.4 329 13.4 102430 41
2010-06-22 06:59 51°13.381 2°51.324 5.6 328 13.3 102420 38
2010-06-22 07:00 51°13.3 2°51.031 5 327 13.3 102420 40
2010-06-22 07:01 51°13.206 2°50.75 5.4 328 13.3 102420 39
2010-06-22 07:02 51°13.107 2°50.473 5.9 325 13.2 102430 39
2010-06-22 07:03 51°13.008 2°50.195 5.3 327 13.2 102420 40
2010-06-22 07:04 51°12.909 2°49.919 5.5 328 13.2 102420 41
2010-06-22 07:05 51°12.811 2°49.641 5.5 328 13.2 102430 42
2010-06-22 07:06 51°12.712 2°49.364 5.3 330 13.2 102430 39
2010-06-22 07:07 51°12.614 2°49.085 5.5 327 13.2 102430 39
2010-06-22 07:08 51°12.515 2°48.808 5.5 329 13.2 102430 39
2010-06-22 07:09 51°12.415 2°48.533 5.6 328 13.2 102430 42
2010-06-22 07:10 51°12.317 2°48.256 5.6 327 13.2 102430 39
2010-06-22 07:11 51°12.219 2°47.976 5.2 326 13.2 102430 42
2010-06-22 07:12 51°12.119 2°47.696 5.2 327 13.2 102430 42
2010-06-22 07:13 51°12.021 2°47.416 5.2 330 13.2 102430 40
2010-06-22 07:14 51°11.931 2°47.13 4.6 326 13.2 102430 42
2010-06-22 07:15 51°11.847 2°46.84 4.6 328 13.3 102430 38
2010-06-22 07:16 51°11.782 2°46.537 4.6 328 13.3 102430 39
2010-06-22 07:17 51°11.72 2°46.233 4.7 327 13.3 102430 40
2010-06-22 07:18 51°11.655 2°45.93 4.9 325 13.4 102430 43
2010-06-22 07:19 51°11.591 2°45.626 4.4 328 13.4 102430 41
2010-06-22 07:20 51°11.526 2°45.323 4.9 327 13.4 102430 42
2010-06-22 07:21 51°11.462 2°45.019 4.8 331 13.4 102430 39
2010-06-22 07:22 51°11.396 2°44.717 4.8 328 13.4 102430 40
2010-06-22 07:23 51°11.331 2°44.418 5.1 330 13.4 102430 39
2010-06-22 07:24 51°11.265 2°44.122 4.2 325 13.4 102430 42
2010-06-22 07:25 51°11.202 2°43.828 4.9 324 13.5 102420 42
2010-06-22 07:26 51°11.136 2°43.536 4.7 327 13.5 102430 42
2010-06-22 07:27 51°11.088 2°43.238 5.5 326 13.5 102420 39
2010-06-22 07:28 51°11.06 2°42.93 5.1 326 13.5 102430 39
2010-06-22 07:29 51°11.069 2°42.624 4.4 329 13.5 102430 39
2010-06-22 07:30 51°11.079 2°42.392 3.9 327 13.5 102430 40
2010-06-22 07:31 51°11.083 2°42.219 1.6 324 13.5 102440 38
2010-06-22 07:32 51°11.11 2°42.113 1.3 328 13.6 102440 41
2010-06-22 07:33 51°11.131 2°42.068 0.2 22 13.6 102440 41
2010-06-22 07:34 51°11.148 2°42.085 -999 24 13.8 102440 41
2010-06-22 07:35 51°11.164 2°42.113 -999 39 13.9 102440 41
2010-06-22 07:36 51°11.179 2°42.144 -999 38 14.1 102440 41
2010-06-22 07:37 51°11.193 2°42.177 -999 28 14.2 102450 41
2010-06-22 07:38 51°11.211 2°42.215 0.1 358 14.3 102450 41
2010-06-22 07:39 51°11.236 2°42.31 1.4 335 14.2 102450 40
2010-06-22 07:40 51°11.199 2°42.409 1.9 326 14.1 102450 41
2010-06-22 07:41 51°11.102 2°42.522 3.9 327 14 102440 41
2010-06-22 07:42 51°10.958 2°42.606 4.4 329 14 102440 42
2010-06-22 07:43 51°10.794 2°42.676 4.6 328 13.9 102440 39
2010-06-22 07:44 51°10.627 2°42.747 4.3 330 13.8 102450 39
2010-06-22 07:45 51°10.46 2°42.823 4.8 332 13.8 102440 40
2010-06-22 07:46 51°10.293 2°42.902 4.2 329 13.8 102450 39
2010-06-22 07:47 51°10.179 2°42.908 1.6 325 13.8 102450 38
2010-06-22 07:48 51°10.133 2°42.78 2.1 329 13.9 102450 39
2010-06-22 07:49 51°10.148 2°42.696 -999 336 14 102450 41
2010-06-22 07:50 51°10.163 2°42.711 -999 9 14.2 102450 41
2010-06-22 07:51 51°10.174 2°42.741 -999 11 14.4 102450 41
2010-06-22 07:52 51°10.183 2°42.771 -999 26 14.6 102450 41
2010-06-22 07:53 51°10.192 2°42.802 -999 26 14.7 102450 41
2010-06-22 07:54 51°10.202 2°42.834 -999 16 14.8 102450 41
2010-06-22 07:55 51°10.221 2°42.861 -999 344 14.8 102450 40
2010-06-22 07:56 51°10.298 2°42.857 2.5 336 14.6 102440 43
2010-06-22 07:57 51°10.438 2°42.79 3.9 332 14.4 102450 43
2010-06-22 07:58 51°10.539 2°42.583 4.4 331 14.3 102450 43
2010-06-22 07:59 51°10.537 2°42.298 4.1 329 14.3 102450 40
2010-06-22 08:00 51°10.482 2°42.007 5 335 14.2 102450 42
2010-06-22 08:01 51°10.41 2°41.717 4.7 333 14.1 102450 42
2010-06-22 08:02 51°10.341 2°41.428 4.5 332 14 102450 41
2010-06-22 08:03 51°10.273 2°41.136 4.7 331 14 102450 41
2010-06-22 08:04 51°10.204 2°40.844 4.8 335 14 102440 40
2010-06-22 08:05 51°10.137 2°40.553 4.5 330 14 102440 40
2010-06-22 08:06 51°10.068 2°40.261 5.1 335 14 102440 42
2010-06-22 08:07 51°9.999 2°39.967 5 335 14 102440 40
2010-06-22 08:08 51°9.927 2°39.671 4.6 334 14 102440 40
2010-06-22 08:09 51°9.856 2°39.374 5 334 14 102440 40
2010-06-22 08:10 51°9.787 2°39.076 4.7 334 13.9 102440 40
2010-06-22 08:11 51°9.716 2°38.78 4.9 333 14 102440 38
2010-06-22 08:12 51°9.646 2°38.484 5 334 14 102440 40
2010-06-22 08:13 51°9.576 2°38.189 5 333 13.9 102440 40
2010-06-22 08:14 51°9.505 2°37.894 5.1 333 13.9 102440 41
2010-06-22 08:15 51°9.458 2°37.669 2.3 336 13.9 102440 40
2010-06-22 08:16 51°9.458 2°37.548 0.3 348 13.9 102440 40
2010-06-22 08:17 51°9.45 2°37.519 0.1 359 14 102440 41
2010-06-22 08:18 51°9.459 2°37.533 -999 354 13.9 102450 41
2010-06-22 08:19 51°9.471 2°37.554 -999 352 13.9 102450 40
2010-06-22 08:20 51°9.484 2°37.58 -999 358 13.9 102450 41
2010-06-22 08:21 51°9.495 2°37.61 -999 359 14 102440 41
2010-06-22 08:22 51°9.504 2°37.642 -999 354 14 102440 41
2010-06-22 08:23 51°9.512 2°37.675 -999 4 14.1 102440 41
2010-06-22 08:24 51°9.519 2°37.71 -999 4 14.2 102440 41
2010-06-22 08:25 51°9.525 2°37.746 -999 7 14.3 102440 41
2010-06-22 08:26 51°9.533 2°37.78 0.1 2 14.3 102440 41
2010-06-22 08:27 51°9.538 2°37.763 0.1 348 14.3 102440 41
2010-06-22 08:28 51°9.504 2°37.681 2 335 14.2 102440 42
2010-06-22 08:29 51°9.473 2°37.552 1.9 336 14.2 102440 40
2010-06-22 08:30 51°9.448 2°37.481 0.1 341 14.2 102440 41
2010-06-22 08:31 51°9.441 2°37.466 -999 -999 14.2 102440 41
2010-06-22 08:32 51°9.433 2°37.469 -999 3 14.2 102440 41
2010-06-22 08:33 51°9.425 2°37.474 -999 8 14.2 102440 41
2010-06-22 08:34 51°9.42 2°37.478 -999 10 14.2 102440 41
2010-06-22 08:35 51°9.418 2°37.48 -999 8 14.2 102440 40
2010-06-22 08:36 51°9.42 2°37.482 -999 6 14.1 102440 41
2010-06-22 08:37 51°9.424 2°37.484 -999 4 14.1 102440 41
2010-06-22 08:38 51°9.429 2°37.487 -999 358 14 102440 41
2010-06-22 08:39 51°9.438 2°37.494 -999 359 14.1 102440 41
2010-06-22 08:40 51°9.448 2°37.507 -999 4 14.1 102440 41
2010-06-22 08:41 51°9.462 2°37.529 -999 9 -999 -999 -999
2010-06-22 08:43 51°9.473 2°37.552 -999 17 14 102440 41
2010-06-22 08:44 51°9.474 2°37.564 -999 22 14.1 102440 41
2010-06-22 08:45 51°9.468 2°37.57 -999 25 14.1 102440 41
2010-06-22 08:46 51°9.46 2°37.571 -999 20 14.2 102440 41
2010-06-22 08:47 51°9.45 2°37.569 -999 23 14.3 102440 41
2010-06-22 08:48 51°9.44 2°37.569 -999 27 14.3 102450 41
2010-06-22 08:49 51°9.433 2°37.57 -999 25 14.4 102450 41
2010-06-22 08:50 51°9.429 2°37.574 -999 31 14.4 102450 41
2010-06-22 08:51 51°9.427 2°37.583 -999 22 14.5 102450 41
2010-06-22 08:52 51°9.426 2°37.596 -999 27 14.6 102440 41
2010-06-22 08:53 51°9.428 2°37.611 -999 28 14.6 102440 41
2010-06-22 08:54 51°9.431 2°37.627 -999 28 14.6 102440 41
2010-06-22 08:55 51°9.435 2°37.646 -999 28 14.6 102440 41
2010-06-22 08:56 51°9.44 2°37.666 -999 23 14.5 102440 41
2010-06-22 08:57 51°9.445 2°37.679 -999 11 14.6 102440 41
2010-06-22 08:58 51°9.464 2°37.641 2.1 349 14.5 102440 42
2010-06-22 08:59 51°9.474 2°37.562 1.6 354 14.3 102440 40
2010-06-22 09:00 51°9.467 2°37.509 0.1 6 14.2 102440 40
2010-06-22 09:01 51°9.468 2°37.505 -999 15 14.1 102440 41
2010-06-22 09:02 51°9.471 2°37.505 -999 27 14.1 102430 41
2010-06-22 09:03 51°9.469 2°37.51 -999 40 14.2 102430 42
2010-06-22 09:04 51°9.461 2°37.526 -999 40 14.3 102430 41
2010-06-22 09:05 51°9.45 2°37.553 -999 36 14.4 102440 42
2010-06-22 09:06 51°9.437 2°37.574 -999 43 14.5 102430 42
2010-06-22 09:07 51°9.428 2°37.589 -999 36 14.7 102440 42
2010-06-22 09:08 51°9.423 2°37.603 -999 39 14.6 102440 42
2010-06-22 09:09 51°9.418 2°37.615 -999 29 14.6 102430 41
2010-06-22 09:10 51°9.417 2°37.602 -999 2 14.5 102440 41
2010-06-22 09:11 51°9.447 2°37.569 1.7 348 14.4 102440 43
2010-06-22 09:12 51°9.483 2°37.527 0.7 5 14.3 102430 43
2010-06-22 09:13 51°9.484 2°37.49 -999 28 14.2 102430 41
2010-06-22 09:14 51°9.463 2°37.486 -999 245 14.2 102430 42
2010-06-22 09:15 51°9.446 2°37.512 0.1 55 14.5 102430 42
2010-06-22 09:16 51°9.444 2°37.541 -999 36 14.6 102430 42
2010-06-22 09:17 51°9.442 2°37.571 -999 55 14.7 102430 42
2010-06-22 09:18 51°9.44 2°37.6 -999 36 14.8 102430 42
2010-06-22 09:19 51°9.437 2°37.628 -999 55 14.8 102430 42
2010-06-22 09:20 51°9.435 2°37.656 -999 36 14.9 102430 42
2010-06-22 09:21 51°9.435 2°37.686 -999 36 14.8 102430 42
2010-06-22 09:22 51°9.436 2°37.718 -999 36 14.8 102430 42
2010-06-22 09:23 51°9.438 2°37.752 -999 36 14.8 102430 42
2010-06-22 09:24 51°9.441 2°37.786 -999 36 14.9 102430 42
2010-06-22 09:25 51°9.445 2°37.821 -999 268 14.9 102430 44
2010-06-22 09:26 51°9.45 2°37.857 -999 305 14.9 102430 42
2010-06-22 09:27 51°9.455 2°37.891 -999 261 15 102420 42
2010-06-22 09:28 51°9.46 2°37.926 -999 305 15.2 102430 42
2010-06-22 09:29 51°9.466 2°37.96 -999 305 15.4 102430 41
2010-06-22 09:30 51°9.471 2°37.993 -999 253 15.4 102430 42
2010-06-22 09:31 51°9.477 2°38.025 -999 305 15.6 102430 42
2010-06-22 09:32 51°9.483 2°38.056 -999 245 15.7 102430 42
2010-06-22 09:33 51°9.488 2°38.087 -999 305 15.8 102430 42
2010-06-22 09:34 51°9.493 2°38.117 -999 246 16 102430 43
2010-06-22 09:35 51°9.498 2°38.145 -999 247 16.1 102430 43
2010-06-22 09:36 51°9.503 2°38.174 -999 253 16.2 102430 43
2010-06-22 09:37 51°9.508 2°38.202 -999 254 16.3 102430 41
2010-06-22 09:38 51°9.513 2°38.231 -999 253 16.4 102430 43
2010-06-22 09:39 51°9.518 2°38.258 -999 255 16.5 102430 43
2010-06-22 09:40 51°9.523 2°38.287 -999 248 16.5 102430 43
2010-06-22 09:41 51°9.528 2°38.313 -999 248 16.6 102430 43
2010-06-22 09:42 51°9.533 2°38.34 -999 252 16.7 102430 43
2010-06-22 09:43 51°9.538 2°38.367 -999 258 16.7 102430 42
2010-06-22 09:44 51°9.543 2°38.398 -999 255 16.7 102430 42
2010-06-22 09:45 51°9.548 2°38.424 -999 256 16.5 102430 42
2010-06-22 09:46 51°9.553 2°38.45 -999 261 16.4 102430 42
2010-06-22 09:47 51°9.558 2°38.476 -999 266 16.3 102430 42
2010-06-22 09:48 51°9.563 2°38.502 -999 266 16.1 102430 42
2010-06-22 09:49 51°9.567 2°38.526 -999 265 16 102430 42
2010-06-22 09:50 51°9.572 2°38.552 -999 264 15.8 102430 42
2010-06-22 09:51 51°9.577 2°38.576 -999 262 15.8 102430 42
2010-06-22 09:52 51°9.582 2°38.6 -999 262 15.8 102430 42
2010-06-22 09:53 51°9.587 2°38.624 -999 263 15.7 102430 42
2010-06-22 09:54 51°9.592 2°38.647 -999 261 15.7 102430 42
2010-06-22 09:55 51°9.59 2°38.676 0.3 257 15.6 102430 42
2010-06-22 09:56 51°9.55 2°38.658 -999 354 15.7 102430 43
2010-06-22 09:57 51°9.586 2°38.51 4.4 344 15.6 102420 41
2010-06-22 09:58 51°9.705 2°38.271 5 339 15.4 102420 42
2010-06-22 09:59 51°9.826 2°37.997 5.4 339 15.2 102420 43
2010-06-22 10:00 51°9.944 2°37.718 5.3 340 15.2 102420 44
2010-06-22 10:01 51°10.058 2°37.432 5.1 338 15.1 102420 42
2010-06-22 10:02 51°10.172 2°37.143 5.5 339 15.1 102420 42
2010-06-22 10:03 51°10.29 2°36.855 5 342 15.1 102420 42
2010-06-22 10:04 51°10.409 2°36.562 4.7 342 15.1 102420 43
2010-06-22 10:05 51°10.591 2°36.402 6.7 338 15.1 102420 44
2010-06-22 10:06 51°10.824 2°36.465 8.2 336 15 102420 42
2010-06-22 10:07 51°11.045 2°36.588 6.3 338 15 102420 43
2010-06-22 10:08 51°11.269 2°36.717 7.5 338 14.9 102420 43
2010-06-22 10:09 51°11.486 2°36.839 6.3 337 15 102420 42
2010-06-22 10:10 51°11.709 2°36.966 7.1 337 14.9 102420 43
2010-06-22 10:11 51°11.928 2°37.091 7.5 337 14.9 102420 42
2010-06-22 10:12 51°12.146 2°37.217 6.7 336 14.9 102420 43
2010-06-22 10:13 51°12.364 2°37.342 6.7 337 14.8 102420 42
2010-06-22 10:14 51°12.586 2°37.458 7.7 335 14.8 102430 42
2010-06-22 10:15 51°12.807 2°37.555 7 337 14.9 102430 42
2010-06-22 10:16 51°13.038 2°37.627 7.2 338 14.9 102430 44
2010-06-22 10:17 51°13.253 2°37.596 5.6 343 14.9 102420 44
2010-06-22 10:18 51°13.425 2°37.385 5.1 341 14.8 102430 44
2010-06-22 10:19 51°13.592 2°37.146 5.2 342 14.7 102430 41
2010-06-22 10:20 51°13.758 2°36.915 5.5 343 14.7 102430 44
2010-06-22 10:21 51°13.931 2°36.684 5.4 341 14.7 102430 44
2010-06-22 10:22 51°14.094 2°36.457 5.6 341 14.7 102430 42
2010-06-22 10:23 51°14.263 2°36.219 4.7 340 14.7 102440 42
2010-06-22 10:24 51°14.438 2°36.003 5 342 14.7 102430 42
2010-06-22 10:25 51°14.656 2°35.875 5.9 339 14.7 102420 42
2010-06-22 10:26 51°14.892 2°35.871 6.3 338 14.8 102430 43
2010-06-22 10:27 51°15.124 2°35.932 7.2 337 14.8 102420 43
2010-06-22 10:28 51°15.363 2°36.024 6.7 337 14.7 102430 43
2010-06-22 10:29 51°15.586 2°36.146 7.4 336 14.8 102430 44
2010-06-22 10:30 51°15.811 2°36.296 7 336 14.8 102430 44
2010-06-22 10:31 51°16.031 2°36.439 8.7 337 14.7 102430 43
2010-06-22 10:32 51°16.229 2°36.571 5.4 340 14.7 102430 41
2010-06-22 10:33 51°16.39 2°36.678 5.5 340 14.7 102430 41
2010-06-22 10:34 51°16.524 2°36.769 3.7 342 14.7 102430 43
2010-06-22 10:35 51°16.618 2°36.832 2.1 355 14.7 102430 42
2010-06-22 10:36 51°16.65 2°36.854 1.2 31 14.5 102430 43
2010-06-22 10:37 51°16.664 2°36.879 0.8 36 14.6 102430 42
2010-06-22 10:38 51°16.679 2°36.903 0.7 34 14.7 102430 43
2010-06-22 10:39 51°16.693 2°36.924 -999 34 14.7 102430 42
2010-06-22 10:40 51°16.707 2°36.944 -999 36 14.7 102440 42
2010-06-22 10:41 51°16.721 2°36.964 -999 33 14.8 102430 42
2010-06-22 10:42 51°16.741 2°36.971 -999 19 14.8 102430 42
2010-06-22 10:43 51°16.808 2°36.885 2.3 343 14.9 102430 43
2010-06-22 10:44 51°16.93 2°36.692 4.2 344 14.8 102430 40
2010-06-22 10:45 51°17.136 2°36.298 3.9 337 14.7 102430 43
2010-06-22 10:47 51°17.308 2°35.929 4.2 339 14.7 102430 43
2010-06-22 10:48 51°17.521 2°35.486 4.1 278 14.8 102430 41
2010-06-22 10:49 51°17.656 2°35.216 4 -999 14.8 102430 43
2010-06-22 10:50 51°17.794 2°34.954 4 278 14.8 102430 43
2010-06-22 10:51 51°17.931 2°34.697 3.7 -999 14.7 102430 41
2010-06-22 10:52 51°18.069 2°34.435 3.8 284 14.7 102430 41
2010-06-22 10:53 51°18.204 2°34.169 3.7 278 14.7 102430 41
2010-06-22 10:54 51°18.339 2°33.899 3.8 284 14.7 102430 41
2010-06-22 10:55 51°18.475 2°33.626 4 283 14.7 102430 41
2010-06-22 10:56 51°18.611 2°33.349 4 284 14.7 102440 42
2010-06-22 10:57 51°18.75 2°33.071 4 284 14.7 102430 43
2010-06-22 10:58 51°18.888 2°32.792 4.3 284 14.7 102440 40
2010-06-22 10:59 51°19.013 2°32.499 4.8 283 14.7 102440 40
2010-06-22 11:00 51°19.124 2°32.192 4.3 279 14.7 102450 40
2010-06-22 11:01 51°19.235 2°31.884 4.3 -999 14.7 102450 41
2010-06-22 11:02 51°19.352 2°31.582 3.9 285 14.7 102450 43
2010-06-22 11:03 51°19.466 2°31.28 4.1 283 14.7 102440 40
2010-06-22 11:04 51°19.582 2°30.983 4.4 282 14.7 102450 40
2010-06-22 11:05 51°19.701 2°30.69 4 279 14.7 102440 41
2010-06-22 11:06 51°19.819 2°30.402 4.1 281 14.7 102450 40
2010-06-22 11:07 51°19.923 2°30.171 1.7 283 14.7 102460 43
2010-06-22 11:08 51°19.984 2°30.048 -999 282 14.7 102440 42
2010-06-22 11:09 51°20.039 2°29.974 -999 -999 14.8 102450 42
2010-06-22 11:10 51°20.084 2°29.961 -999 3 14.8 102450 41
2010-06-22 11:11 51°20.115 2°29.974 -999 17 14.9 102460 42
2010-06-22 11:12 51°20.14 2°29.994 -999 -999 14.9 102460 42
2010-06-22 11:13 51°20.164 2°30.015 -999 19 15 102460 42
2010-06-22 11:14 51°20.187 2°30.038 -999 -999 15 102460 42
2010-06-22 11:15 51°20.207 2°30.062 -999 281 15.1 102460 42
2010-06-22 11:16 51°20.241 2°30.091 -999 -999 15.1 102460 42
2010-06-22 11:17 51°20.295 2°30.198 3.2 284 15.1 102450 41
2010-06-22 11:18 51°20.353 2°30.477 5 278 15 102450 41
2010-06-22 11:19 51°20.435 2°30.831 5.7 283 14.9 102460 41
2010-06-22 11:20 51°20.512 2°31.183 5.6 278 14.8 102450 42
2010-06-22 11:21 51°20.591 2°31.549 5.8 282 14.8 102450 41
2010-06-22 11:22 51°20.666 2°31.9 5.6 285 14.7 102450 41
2010-06-22 11:23 51°20.742 2°32.259 5.7 284 14.7 102450 42
2010-06-22 11:24 51°20.767 2°32.624 6.5 280 14.7 102450 40
2010-06-22 11:25 51°20.769 2°32.993 6.2 -999 14.7 102450 41
2010-06-22 11:26 51°20.781 2°33.365 6.6 285 14.7 102450 41
2010-06-22 11:27 51°20.8 2°33.738 6.2 283 14.7 102450 40
2010-06-22 11:28 51°20.819 2°34.113 7.1 284 14.7 102450 42
2010-06-22 11:29 51°20.837 2°34.489 7.1 284 14.7 102450 41
2010-06-22 11:30 51°20.856 2°34.865 6.9 283 14.7 102450 40
2010-06-22 11:31 51°20.874 2°35.235 7 284 14.7 102450 40
2010-06-22 11:32 51°20.892 2°35.617 7.2 277 14.8 102450 41
2010-06-22 11:33 51°20.901 2°35.988 7.6 280 14.8 102450 41
2010-06-22 11:34 51°20.912 2°36.357 7.7 282 14.8 102450 41
2010-06-22 11:35 51°20.925 2°36.726 7.2 282 14.8 102440 40
2010-06-22 11:36 51°20.936 2°37.095 7.3 277 14.8 102450 41
2010-06-22 11:37 51°20.955 2°37.466 6.7 -999 14.9 102450 41
2010-06-22 11:38 51°20.99 2°37.835 7.6 -999 14.8 102440 41
2010-06-22 11:39 51°21.026 2°38.203 7.1 284 14.8 102450 42
2010-06-22 11:40 51°21.059 2°38.571 7.9 -999 14.8 102450 41
2010-06-22 11:41 51°21.078 2°38.939 7.1 283 14.8 102450 42
2010-06-22 11:42 51°21.094 2°39.263 5.3 -999 14.8 102450 40
2010-06-22 11:43 51°21.111 2°39.44 3.3 279 15 102460 42
2010-06-22 11:44 51°21.15 2°39.533 2.3 -999 15 102460 39
2010-06-22 11:45 51°21.252 2°39.557 5.1 283 15 102450 40
2010-06-22 11:46 51°21.466 2°39.574 9.2 -999 15 102440 42
2010-06-22 11:47 51°21.693 2°39.663 8.8 278 15 102430 40
2010-06-22 11:48 51°21.92 2°39.76 6.8 -999 15 102450 41
2010-06-22 11:49 51°22.146 2°39.86 7.2 284 15 102430 40
2010-06-22 11:50 51°22.365 2°39.99 7.5 -999 15.1 102440 42
2010-06-22 11:51 51°22.566 2°40.185 7.2 278 15.1 102430 40
2010-06-22 11:52 51°22.755 2°40.414 7.3 283 15.1 102420 41
2010-06-22 11:53 51°22.943 2°40.639 6.5 278 15.1 102440 40
2010-06-22 11:54 51°23.098 2°40.921 9 -999 15.1 102430 41
2010-06-22 11:55 51°23.219 2°41.246 8.6 284 15.1 102430 39
2010-06-22 11:56 51°23.364 2°41.546 7.4 -999 15.1 102430 40
2010-06-22 11:57 51°23.512 2°41.842 8.3 277 15.1 102420 40
2010-06-22 11:58 51°23.659 2°42.138 8.7 -999 15 102420 41
2010-06-22 11:59 51°23.808 2°42.434 9.5 280 15.1 102430 41
2010-06-22 12:00 51°23.957 2°42.728 8.5 -999 15.1 102410 41
2010-06-22 12:01 51°24.107 2°43.021 9.8 283 15 102430 41
2010-06-22 12:02 51°24.272 2°43.287 7.6 281 15 102430 42
2010-06-22 12:03 51°24.412 2°43.576 8.4 281 14.9 102420 41
2010-06-22 12:04 51°24.529 2°43.905 8.7 282 14.9 102420 41
2010-06-22 12:05 51°24.644 2°44.217 8.6 284 14.9 102430 42
2010-06-22 12:06 51°24.756 2°44.544 8.8 284 14.9 102430 42
2010-06-22 12:07 51°24.87 2°44.864 8.6 277 14.8 102420 42
2010-06-22 12:08 51°24.983 2°45.183 8.2 277 14.8 102430 41
2010-06-22 12:09 51°25.098 2°45.503 8.4 282 14.7 102430 40
2010-06-22 12:10 51°25.214 2°45.82 9 277 14.8 102410 41
2010-06-22 12:11 51°25.329 2°46.138 8.4 283 14.7 102410 39
2010-06-22 12:12 51°25.444 2°46.457 9.4 280 14.8 102430 42
2010-06-22 12:13 51°25.55 2°46.784 7.8 284 14.8 102420 42
2010-06-22 12:14 51°25.664 2°47.105 8.3 278 14.8 102430 40
2010-06-22 12:15 51°25.788 2°47.415 9 279 14.8 102440 41
2010-06-22 12:16 51°25.903 2°47.703 6.3 278 14.8 102430 41
2010-06-22 12:17 51°25.963 2°47.946 4.6 284 14.8 102440 39
2010-06-22 12:18 51°25.975 2°48.151 4.2 285 14.9 102440 40
2010-06-22 12:19 51°25.946 2°48.334 3.6 284 14.9 102440 41
2010-06-22 12:20 51°25.937 2°48.477 2.7 284 15 102440 40
2010-06-22 12:21 51°25.954 2°48.561 2 284 15.1 102440 42
2010-06-22 12:22 51°25.97 2°48.59 0.5 280 15.2 102450 42
2010-06-22 12:23 51°25.983 2°48.599 -999 -999 15.3 102450 41
2010-06-22 12:24 51°25.995 2°48.604 -999 -999 15.1 102450 41
2010-06-22 12:25 51°26.005 2°48.607 -999 -999 15 102450 41
2010-06-22 12:26 51°26.011 2°48.608 -999 -999 14.9 102450 41
2010-06-22 12:27 51°26.015 2°48.611 -999 -999 14.9 102450 40
2010-06-22 12:28 51°26.016 2°48.618 -999 19 14.9 102450 41
2010-06-22 12:29 51°26.018 2°48.628 -999 22 15 102450 42
2010-06-22 12:30 51°26.027 2°48.623 0.9 -999 15 102450 41
2010-06-22 12:31 51°26.075 2°48.605 2.2 280 15 102450 43
2010-06-22 12:32 51°26.128 2°48.677 2.2 -999 15 102450 41
2010-06-22 12:33 51°26.185 2°48.815 4.8 284 15 102450 42
2010-06-22 12:34 51°26.253 2°49.053 5.4 -999 15.1 102440 41
2010-06-22 12:35 51°26.304 2°49.374 6.2 284 15.1 102440 40
2010-06-22 12:36 51°26.36 2°49.716 6.5 280 15.1 102440 40
2010-06-22 12:37 51°26.415 2°50.064 6.8 277 15.1 102440 41
2010-06-22 12:38 51°26.448 2°50.418 6.9 283 15.1 102440 40
2010-06-22 12:39 51°26.469 2°50.776 6.6 285 15.1 102430 40
2010-06-22 12:40 51°26.491 2°51.134 6.4 278 15.1 102430 40
2010-06-22 12:41 51°26.514 2°51.493 6.9 280 15.1 102430 40
2010-06-22 12:42 51°26.537 2°51.851 7 284 15.1 102440 41
2010-06-22 12:43 51°26.56 2°52.205 6.7 279 15.1 102430 39
2010-06-22 12:44 51°26.584 2°52.555 5.8 279 15.1 102440 40
2010-06-22 12:45 51°26.607 2°52.907 6.1 281 15.1 102440 42
2010-06-22 12:46 51°26.632 2°53.26 6.5 284 15.2 102440 41
2010-06-22 12:47 51°26.656 2°53.615 6.7 284 15.2 102440 41
2010-06-22 12:48 51°26.68 2°53.969 6.5 280 15.2 102430 41
2010-06-22 12:49 51°26.721 2°54.321 7.7 283 15.2 102430 41
2010-06-22 12:50 51°26.774 2°54.67 6.6 283 15.1 102430 41
2010-06-22 12:51 51°26.826 2°55.019 6.6 279 15.1 102430 40
2010-06-22 12:52 51°26.878 2°55.365 6.8 280 15.1 102440 41
2010-06-22 12:53 51°26.93 2°55.71 6.7 283 15 102430 40
2010-06-22 12:54 51°26.982 2°56.056 7.5 276 14.9 102440 41
2010-06-22 12:55 51°27.034 2°56.403 8.4 282 15 102430 40
2010-06-22 12:56 51°27.088 2°56.746 7.2 278 15 102440 39
2010-06-22 12:57 51°27.141 2°57.084 6.8 -999 14.9 102430 38
2010-06-22 12:58 51°27.195 2°57.434 8.3 277 14.9 102430 39
2010-06-22 12:59 51°27.249 2°57.773 6.5 283 15 102430 38
2010-06-22 13:00 51°27.303 2°58.123 5.8 284 15 102430 40
2010-06-22 13:01 51°27.358 2°58.46 6.8 283 15 102430 39
2010-06-22 13:02 51°27.415 2°58.809 7.1 284 15.1 102430 39
2010-06-22 13:03 51°27.477 2°59.149 7.4 -999 15.1 102440 39
2010-06-22 13:04 51°27.541 2°59.489 6.8 282 15.1 102440 39
2010-06-22 13:05 51°27.605 2°59.829 7 282 15.1 102440 39
2010-06-22 13:06 51°27.667 3°0.17 7.3 284 15.2 102440 39
2010-06-22 13:07 51°27.726 3°0.514 8.2 283 15.2 102440 40
2010-06-22 13:08 51°27.786 3°0.858 6.4 285 15.2 102440 41
2010-06-22 13:09 51°27.845 3°1.203 6.7 285 15.1 102440 39
2010-06-22 13:10 51°27.903 3°1.55 6.8 280 15.1 102440 40
2010-06-22 13:11 51°27.962 3°1.896 8 279 15.1 102450 40
2010-06-22 13:12 51°28.029 3°2.238 6.4 284 15.1 102440 40
2010-06-22 13:13 51°28.094 3°2.582 7.5 283 15.2 102440 42
2010-06-22 13:14 51°28.161 3°2.919 6.2 280 15.2 102440 41
2010-06-22 13:15 51°28.218 3°3.207 5.5 278 15.2 102440 41
2010-06-22 13:16 51°28.267 3°3.453 3.3 283 15.2 102440 40
2010-06-22 13:17 51°28.297 3°3.583 1.8 280 15.3 102440 41
2010-06-22 13:18 51°28.312 3°3.616 -999 281 15.4 102440 41
2010-06-22 13:19 51°28.323 3°3.631 -999 -999 15.5 102440 41
2010-06-22 13:20 51°28.333 3°3.643 -999 -999 15.6 102450 41
2010-06-22 13:21 51°28.343 3°3.652 -999 -999 15.7 102440 41
2010-06-22 13:22 51°28.352 3°3.66 -999 -999 15.8 102440 41
2010-06-22 13:23 51°28.36 3°3.667 -999 -999 15.9 102440 39
2010-06-22 13:24 51°28.368 3°3.675 -999 -999 16 102440 40
2010-06-22 13:25 51°28.374 3°3.681 -999 -999 16.2 102440 41
2010-06-22 13:26 51°28.379 3°3.687 -999 -999 16.2 102440 41
2010-06-22 13:27 51°28.385 3°3.693 -999 281 16.4 102440 41
2010-06-22 13:28 51°28.389 3°3.698 -999 -999 16.4 102440 41
2010-06-22 13:29 51°28.394 3°3.703 -999 -999 16.5 102440 41
2010-06-22 13:30 51°28.398 3°3.708 -999 -999 16.5 102440 41
2010-06-22 13:31 51°28.401 3°3.711 -999 -999 16.6 102430 40
2010-06-22 13:32 51°28.405 3°3.714 -999 -999 16.5 102430 40
2010-06-22 13:33 51°28.407 3°3.712 -999 -999 16.6 102430 40
2010-06-22 13:34 51°28.408 3°3.705 -999 -999 16.6 102440 41
2010-06-22 13:35 51°28.41 3°3.696 -999 281 16.6 102430 41
2010-06-22 13:36 51°28.412 3°3.683 -999 281 16.7 102430 41
2010-06-22 13:37 51°28.415 3°3.668 -999 -999 16.7 102430 41
2010-06-22 13:38 51°28.404 3°3.695 -999 -999 16.8 102430 41
2010-06-22 13:39 51°28.347 3°3.83 3.9 285 16.6 102430 38
2010-06-22 13:40 51°28.249 3°4.092 5.6 283 16.4 102430 40
2010-06-22 13:41 51°28.142 3°4.393 5.1 283 16.1 102420 41
2010-06-22 13:42 51°28.028 3°4.686 5.8 281 16 102420 40
2010-06-22 13:43 51°27.91 3°4.968 5.7 286 15.8 102420 40
2010-06-22 13:44 51°27.792 3°5.25 5.9 285 15.8 102420 40
2010-06-22 13:45 51°27.675 3°5.534 5.8 284 15.8 102420 40
2010-06-22 13:46 51°27.56 3°5.815 5.6 277 15.8 102420 41
2010-06-22 13:47 51°27.442 3°6.104 5.1 281 15.9 102420 38
2010-06-22 13:48 51°27.327 3°6.382 5.3 279 15.8 102420 39
2010-06-22 13:49 51°27.21 3°6.669 4.6 284 15.9 102420 39
2010-06-22 13:50 51°27.094 3°6.949 5.1 326 15.9 102420 40
2010-06-22 13:51 51°26.977 3°7.23 5.1 324 15.9 102420 41
2010-06-22 13:52 51°26.862 3°7.508 4.5 283 15.9 102420 40
2010-06-22 13:53 51°26.744 3°7.784 4.5 327 15.9 102420 40
2010-06-22 13:55 51°26.603 3°8.119 4.2 323 15.9 102420 40
2010-06-22 13:57 51°26.435 3°8.275 -999 14 16.1 102420 41
2010-06-22 13:58 51°26.41 3°8.244 -999 31 16.2 102430 40
2010-06-22 13:59 51°26.413 3°8.229 -999 33 16.2 102430 40
2010-06-22 14:00 51°26.417 3°8.215 -999 33 16.2 102430 40
2010-06-22 14:01 51°26.421 3°8.202 -999 32 16.1 102430 39
2010-06-22 14:02 51°26.423 3°8.189 -999 38 16.1 102430 40
2010-06-22 14:03 51°26.425 3°8.175 -999 39 16.1 102430 40
2010-06-22 14:04 51°26.427 3°8.159 -999 40 16 102420 40
2010-06-22 14:05 51°26.428 3°8.143 -999 37 15.9 102430 40
2010-06-22 14:06 51°26.429 3°8.126 -999 39 16 102420 41
2010-06-22 14:07 51°26.429 3°8.108 -999 39 15.9 102420 41
2010-06-22 14:08 51°26.429 3°8.09 -999 34 16 102430 41
2010-06-22 14:09 51°26.43 3°8.07 -999 35 16 102420 40
2010-06-22 14:10 51°26.429 3°8.05 -999 29 16 102430 41
2010-06-22 14:11 51°26.429 3°8.028 -999 26 16 102420 41
2010-06-22 14:12 51°26.429 3°8.007 -999 27 16 102430 41
2010-06-22 14:13 51°26.429 3°7.985 -999 25 16.1 102430 41
2010-06-22 14:14 51°26.428 3°7.963 -999 23 16 102430 40
2010-06-22 14:15 51°26.428 3°7.94 -999 20 16 102420 40
2010-06-22 14:16 51°26.427 3°7.89 0.6 2 16 102430 40
2010-06-22 14:17 51°26.357 3°7.768 3.1 342 15.9 102420 39
2010-06-22 14:18 51°26.19 3°7.613 3.6 336 15.9 102420 40
2010-06-22 14:19 51°25.994 3°7.491 3.9 335 16 102420 40
2010-06-22 14:20 51°25.788 3°7.355 4.2 335 16.1 102420 41
2010-06-22 14:21 51°25.58 3°7.217 4 333 16.1 102420 40
2010-06-22 14:22 51°25.365 3°7.123 3.5 330 16.2 102430 41
2010-06-22 14:23 51°25.152 3°7.152 4.1 327 16.1 102420 40
2010-06-22 14:24 51°24.957 3°7.278 4.4 301 16 102420 41
2010-06-22 14:25 51°24.8 3°7.492 4.5 327 16 102430 42
2010-06-22 14:26 51°24.699 3°7.768 4.5 303 16 102420 43
2010-06-22 14:27 51°24.603 3°8.047 5 301 16 102420 41
2010-06-22 14:28 51°24.496 3°8.318 4.7 307 16.1 102420 43
2010-06-22 14:29 51°24.387 3°8.586 4.4 300 16.1 102420 43
2010-06-22 14:30 51°24.277 3°8.854 4.3 307 16.1 102420 41
2010-06-22 14:31 51°24.164 3°9.117 4.4 305 16.1 102420 43
2010-06-22 14:32 51°24.056 3°9.382 4.4 327 16.1 102420 41
2010-06-22 14:33 51°23.944 3°9.646 4 306 16.1 102420 42
2010-06-22 14:34 51°23.83 3°9.907 4 308 16.2 102410 43
2010-06-22 14:35 51°23.711 3°10.159 3.7 304 16.2 102420 41
2010-06-22 14:36 51°23.576 3°10.401 4.1 302 16.2 102420 43
2010-06-22 14:37 51°23.44 3°10.646 4.1 306 16.3 102420 44
2010-06-22 14:38 51°23.304 3°10.892 4.3 300 16.2 102420 43
2010-06-22 14:39 51°23.169 3°11.138 4 307 16.3 102420 42
2010-06-22 14:40 51°23.049 3°11.399 3.9 308 16.3 102420 42
2010-06-22 14:41 51°22.932 3°11.662 4.2 306 16.3 102420 41
2010-06-22 14:42 51°22.849 3°11.924 4.1 301 16.3 102420 42
2010-06-22 14:43 51°22.778 3°12.184 4.4 308 16.3 102420 44
2010-06-22 14:44 51°22.707 3°12.446 4.1 306 16.2 102420 43
2010-06-22 14:45 51°22.641 3°12.706 4.7 305 16.1 102420 44
2010-06-22 14:46 51°22.632 3°12.979 4.6 305 16.1 102420 42
2010-06-22 14:47 51°22.619 3°13.199 3.6 306 16.1 102420 43
2010-06-22 14:48 51°22.615 3°13.299 2.2 306 16 102420 44
2010-06-22 14:49 51°22.603 3°13.297 2.2 53 16.1 102430 42
2010-06-22 14:50 51°22.589 3°13.269 1.8 53 16 102430 43
2010-06-22 14:51 51°22.578 3°13.236 2.2 59 15.9 102430 42
2010-06-22 14:52 51°22.568 3°13.2 2 54 15.8 102430 43
2010-06-22 14:53 51°22.559 3°13.162 2.1 54 15.6 102430 43
2010-06-22 14:54 51°22.541 3°13.13 0.1 55 15.6 102430 44
2010-06-22 14:55 51°22.494 3°13.047 2.3 4 15.6 102430 42
2010-06-22 14:56 51°22.508 3°12.891 3.7 343 15.6 102430 43
2010-06-22 14:57 51°22.552 3°12.738 4 342 15.7 102420 42
2010-06-22 14:58 51°22.598 3°12.58 4.2 340 15.8 102420 44
2010-06-22 14:59 51°22.628 3°12.403 3.9 351 15.8 102420 41
2010-06-22 15:00 51°22.63 3°12.225 3.3 353 15.6 102430 42
2010-06-22 15:01 51°22.637 3°12.075 2.8 358 15.4 102430 41
2010-06-22 15:02 51°22.63 3°11.984 2.1 28 15.3 102430 43
2010-06-22 15:03 51°22.637 3°11.975 2 33 15.4 102430 41
2010-06-22 15:04 51°22.642 3°11.963 1.8 36 15.4 102430 41
2010-06-22 15:05 51°22.646 3°11.945 1.3 38 15.5 102430 40
2010-06-22 15:06 51°22.648 3°11.923 1.4 38 15.6 102430 42
2010-06-22 15:07 51°22.649 3°11.898 2 42 15.7 102430 43
2010-06-22 15:08 51°22.649 3°11.868 1.3 43 15.6 102430 42
2010-06-22 15:09 51°22.647 3°11.837 1.6 58 15.6 102430 40
2010-06-22 15:10 51°22.646 3°11.805 1.6 52 15.6 102430 41
2010-06-22 15:11 51°22.642 3°11.772 -999 55 15.7 102430 42
2010-06-22 15:12 51°22.635 3°11.735 1 40 15.7 102430 42
2010-06-22 15:13 51°22.616 3°11.678 1.3 20 15.7 102430 40
2010-06-22 15:14 51°22.585 3°11.574 1.5 7 15.8 102430 42
2010-06-22 15:15 51°22.541 3°11.441 1.5 13 15.8 102430 41
2010-06-22 15:16 51°22.523 3°11.379 1.7 55 15.8 102430 42
2010-06-22 15:17 51°22.52 3°11.34 1.6 51 15.8 102430 40
2010-06-22 15:18 51°22.514 3°11.301 1.7 43 15.8 102430 41
2010-06-22 15:19 51°22.506 3°11.263 1.8 41 15.8 102430 41
2010-06-22 15:20 51°22.499 3°11.226 1.5 44 15.8 102430 41
2010-06-22 15:21 51°22.489 3°11.187 1.1 35 15.8 102430 39
2010-06-22 15:22 51°22.452 3°11.057 3.5 352 15.8 102430 41
2010-06-22 15:23 51°22.438 3°10.743 6 343 15.8 102420 43
2010-06-22 15:24 51°22.42 3°10.369 5.9 342 15.8 102410 41
2010-06-22 15:25 51°22.373 3°9.993 5.9 343 15.9 102410 43
2010-06-22 15:26 51°22.323 3°9.614 6.2 345 15.9 102410 42
2010-06-22 15:27 51°22.275 3°9.231 6.6 343 16 102410 42
2010-06-22 15:28 51°22.224 3°8.848 6.9 342 15.9 102410 40
2010-06-22 15:29 51°22.166 3°8.47 6 342 16 102410 40
2010-06-22 15:30 51°22.099 3°8.094 6.7 340 16 102410 39
2010-06-22 15:31 51°22.033 3°7.72 6 343 16.1 102410 40
2010-06-22 15:32 51°21.968 3°7.344 5.8 343 16.2 102410 40
2010-06-22 15:33 51°21.903 3°6.967 6.4 341 16.2 102410 38
2010-06-22 15:34 51°21.837 3°6.588 5.7 340 16.2 102410 39
2010-06-22 15:35 51°21.77 3°6.21 5.3 342 16.3 102410 39
2010-06-22 15:36 51°21.702 3°5.835 5.5 341 16.3 102410 39
2010-06-22 15:37 51°21.634 3°5.46 5.9 341 16.3 102410 40
2010-06-22 15:38 51°21.565 3°5.086 5.6 342 16.4 102410 40
2010-06-22 15:39 51°21.496 3°4.714 5.3 342 16.4 102410 40
2010-06-22 15:40 51°21.428 3°4.343 6 341 16.4 102410 40
2010-06-22 15:41 51°21.361 3°3.972 5.9 342 16.4 102400 39
2010-06-22 15:42 51°21.296 3°3.601 5.4 341 16.4 102410 40
2010-06-22 15:43 51°21.226 3°3.231 5 341 16.5 102400 40
2010-06-22 15:44 51°21.136 3°2.87 4.8 340 16.5 102400 41
2010-06-22 15:45 51°21.054 3°2.506 5.7 342 16.4 102400 39
2010-06-22 15:46 51°21.039 3°2.124 6.7 341 16.5 102400 39
2010-06-22 15:47 51°21.03 3°1.742 6.2 339 16.5 102400 39
2010-06-22 15:48 51°20.982 3°1.367 5.7 343 16.4 102400 37
2010-06-22 15:49 51°20.909 3°1 6.1 342 16.5 102390 36
2010-06-22 15:50 51°20.835 3°0.631 5.8 340 16.5 102400 37
2010-06-22 15:51 51°20.761 3°0.262 5.8 342 16.5 102390 38
2010-06-22 15:52 51°20.656 2°59.911 6.2 346 16.4 102400 38
2010-06-22 15:53 51°20.547 2°59.562 5.4 341 16.4 102400 36
2010-06-22 15:54 51°20.438 2°59.212 5.9 344 16.3 102400 39
2010-06-22 15:55 51°20.341 2°58.855 6.2 343 16.3 102390 39
2010-06-22 15:56 51°20.243 2°58.498 5.3 342 16.3 102390 37
2010-06-22 15:57 51°20.146 2°58.143 5.1 342 16.4 102390 37
2010-06-22 15:58 51°20.049 2°57.787 5 342 16.3 102390 38
2010-06-22 15:59 51°19.951 2°57.429 5.2 342 16.3 102390 38
2010-06-22 16:00 51°19.854 2°57.071 6.1 340 16.3 102390 38
2010-06-22 16:01 51°19.757 2°56.715 5.1 340 16.4 102390 35
2010-06-22 16:02 51°19.659 2°56.36 5.9 341 16.4 102390 38
2010-06-22 16:03 51°19.561 2°56.007 5.2 345 16.4 102390 36
2010-06-22 16:04 51°19.471 2°55.648 5.7 343 16.4 102390 38
2010-06-22 16:05 51°19.38 2°55.291 5.5 343 16.4 102390 37
2010-06-22 16:06 51°19.289 2°54.934 5.9 344 16.4 102390 38
2010-06-22 16:07 51°19.197 2°54.579 5.1 342 16.5 102380 39
2010-06-22 16:08 51°19.105 2°54.222 5.5 340 16.5 102380 39
2010-06-22 16:09 51°19.013 2°53.865 5.8 342 16.5 102390 37
2010-06-22 16:10 51°18.921 2°53.509 4.9 341 16.6 102380 38
2010-06-22 16:11 51°18.83 2°53.154 4.9 338 16.5 102380 38
2010-06-22 16:12 51°18.743 2°52.794 5.6 338 16.6 102380 38
2010-06-22 16:13 51°18.658 2°52.431 5.1 339 16.6 102380 39
2010-06-22 16:14 51°18.627 2°52.06 6 339 16.6 102390 38
2010-06-22 16:15 51°18.638 2°51.684 5.6 338 16.6 102370 40
2010-06-22 16:16 51°18.65 2°51.305 5.9 339 16.6 102380 39
2010-06-22 16:17 51°18.625 2°51.037 0.8 348 16.6 102380 38
2010-06-22 16:18 51°18.547 2°50.959 -999 4 16.6 102380 40
2010-06-22 16:19 51°18.489 2°50.939 -999 305 16.7 102380 40
2010-06-22 16:20 51°18.459 2°50.917 -999 305 16.8 102380 40
2010-06-22 16:21 51°18.435 2°50.891 -999 55 16.9 102380 40
2010-06-22 16:22 51°18.412 2°50.865 -999 55 16.9 102380 39
2010-06-22 16:23 51°18.389 2°50.838 -999 305 17 102380 39
2010-06-22 16:24 51°18.366 2°50.811 -999 305 17.1 102380 40
2010-06-22 16:25 51°18.344 2°50.784 -999 305 17.2 102380 38
2010-06-22 16:26 51°18.309 2°50.769 -999 305 17.2 102380 40
2010-06-22 16:27 51°18.213 2°50.847 3.6 300 17.2 102380 39
2010-06-22 16:28 51°18.073 2°51.043 5.6 309 17.1 102370 38
2010-06-22 16:29 51°17.918 2°51.287 5.6 324 17 102370 40
2010-06-22 16:30 51°17.76 2°51.53 5.4 302 16.9 102370 39
2010-06-22 16:31 51°17.598 2°51.771 5.8 301 16.9 102370 39
2010-06-22 16:32 51°17.436 2°52.017 5.6 323 16.8 102370 39
2010-06-22 16:33 51°17.273 2°52.266 5.9 301 16.8 102370 38
2010-06-22 16:34 51°17.113 2°52.51 5.4 305 16.8 102370 38
2010-06-22 16:35 51°16.94 2°52.738 5.4 323 16.8 102370 40
2010-06-22 16:36 51°16.809 2°52.925 3.1 308 16.8 102370 39
2010-06-22 16:37 51°16.753 2°53.026 2.1 307 16.8 102370 40
2010-06-22 16:38 51°16.722 2°53.111 3.5 307 16.7 102370 40
2010-06-22 16:39 51°16.674 2°53.283 4.3 306 16.7 102370 38
2010-06-22 16:40 51°16.591 2°53.532 6 306 16.7 102360 38
2010-06-22 16:41 51°16.495 2°53.816 5.7 307 16.7 102370 37
2010-06-22 16:42 51°16.373 2°54.073 5.5 307 16.7 102370 39
2010-06-22 16:43 51°16.309 2°54.269 3.8 301 16.7 102370 38
2010-06-22 16:44 51°16.301 2°54.369 2.5 307 16.7 102370 38
2010-06-22 16:45 51°16.281 2°54.373 0.1 305 16.7 102370 38
2010-06-22 16:46 51°16.263 2°54.347 -999 305 16.8 102370 39
2010-06-22 16:47 51°16.246 2°54.32 -999 55 16.8 102380 38
2010-06-22 16:48 51°16.228 2°54.292 -999 55 16.7 102380 38
2010-06-22 16:49 51°16.198 2°54.261 -999 305 16.6 102370 36
2010-06-22 16:50 51°16.067 2°54.243 3.6 302 16.7 102370 37
2010-06-22 16:51 51°15.856 2°54.267 4.4 307 16.7 102370 38
2010-06-22 16:52 51°15.631 2°54.307 5 306 16.7 102360 38
2010-06-22 16:53 51°15.407 2°54.353 4.5 306 16.7 102360 39
2010-06-22 16:54 51°15.184 2°54.41 4.9 306 16.7 102360 39
2010-06-22 16:55 51°14.97 2°54.519 5.5 301 16.7 102360 40
2010-06-22 16:56 51°14.771 2°54.694 5.7 306 16.6 102360 39
2010-06-22 16:57 51°14.591 2°54.879 5.6 308 16.6 102360 38
2010-06-22 16:58 51°14.421 2°55.088 5.4 300 16.6 102350 40
2010-06-22 16:59 51°14.249 2°55.287 4.2 306 16.5 102360 41
2010-06-22 17:00 51°14.12 2°55.406 3.3 306 16.5 102360 39
2010-06-22 17:01 51°13.996 2°55.496 2 307 16.5 102360 39
2010-06-22 17:02 51°13.886 2°55.58 2.1 303 16.6 102360 38
2010-06-22 17:03 51°13.784 2°55.673 2 306 16.6 102360 37
2010-06-22 17:04 51°13.715 2°55.788 1.5 308 16.8 102350 37
2010-06-22 17:05 51°13.673 2°55.899 0.1 310 16.9 102350 35
2010-06-22 17:06 51°13.663 2°55.957 0.4 302 17.2 102360 36